createdAt,value
2023-01-04T00:00:37.989Z,6.45
2023-01-04T00:03:01.777Z,8.70
2023-01-04T00:05:25.090Z,5.00
2023-01-04T00:07:49.937Z,5.18
2023-01-04T00:10:13.305Z,8.45
2023-01-04T00:12:37.284Z,4.97
2023-01-04T00:15:00.669Z,5.97
2023-01-04T00:17:24.001Z,4.93
2023-01-04T00:19:47.503Z,7.63
2023-01-04T00:22:10.962Z,5.72
2023-01-04T00:24:35.903Z,9.75
2023-01-04T00:26:59.221Z,5.38
2023-01-04T00:29:23.095Z,6.38
2023-01-04T00:31:46.607Z,4.28
2023-01-04T00:34:15.176Z,8.80
2023-01-04T00:36:38.960Z,6.30
2023-01-04T00:39:10.464Z,6.93
2023-01-04T00:41:58.165Z,5.35
2023-01-04T00:44:21.744Z,6.03
2023-01-04T00:46:46.159Z,5.35
2023-01-04T00:49:12.288Z,8.85
2023-01-04T00:51:38.108Z,3.80
2023-01-04T00:54:04.001Z,5.25
2023-01-04T00:56:27.435Z,8.25
2023-01-04T00:58:56.491Z,7.30
2023-01-04T01:01:19.808Z,5.22
2023-01-04T01:03:44.518Z,4.32
2023-01-04T01:06:09.499Z,7.63
2023-01-04T01:08:34.555Z,6.30
2023-01-04T01:11:04.431Z,7.65
2023-01-04T01:13:27.962Z,6.43
2023-01-04T01:15:52.661Z,5.15
2023-01-04T01:18:16.890Z,7.45
2023-01-04T01:20:44.999Z,7.93
2023-01-04T01:23:08.524Z,6.78
2023-01-04T01:25:35.080Z,9.68
2023-01-04T01:27:58.461Z,7.25
2023-01-04T01:30:21.819Z,5.03
2023-01-04T01:32:46.748Z,8.32
2023-01-04T01:35:10.838Z,6.82
2023-01-04T01:37:34.189Z,6.35
2023-01-04T01:39:57.565Z,5.90
2023-01-04T01:42:23.402Z,6.38
2023-01-04T01:45:00.933Z,8.60
2023-01-04T01:47:28.147Z,4.82
2023-01-04T01:49:55.034Z,9.63
2023-01-04T01:52:23.121Z,6.80
2023-01-04T01:54:50.977Z,6.63
2023-01-04T01:57:19.226Z,6.68
2023-01-04T01:59:45.675Z,7.18
2023-01-04T02:02:09.178Z,10.48
2023-01-04T02:04:33.104Z,11.40
2023-01-04T02:06:59.056Z,6.78
2023-01-04T02:09:24.285Z,8.70
2023-01-04T02:11:47.792Z,8.30
2023-01-04T02:14:30.310Z,9.52
2023-01-04T02:17:07.081Z,6.00
2023-01-04T02:19:47.360Z,5.90
2023-01-04T02:22:44.223Z,4.82
2023-01-04T02:25:39.293Z,7.25
2023-01-04T02:28:07.740Z,4.85
2023-01-04T02:31:16.197Z,6.43
2023-01-04T02:33:50.380Z,9.57
2023-01-04T02:36:22.882Z,9.23
2023-01-04T02:39:01.243Z,6.05
2023-01-04T02:41:35.137Z,8.52
2023-01-04T02:44:24.325Z,6.07
2023-01-04T02:46:56.385Z,7.53
2023-01-04T02:49:37.432Z,6.95
2023-01-04T02:52:00.697Z,8.05
2023-01-04T02:54:29.954Z,8.30
2023-01-04T02:57:23.068Z,3.80
2023-01-04T03:00:11.753Z,9.80
2023-01-04T03:03:20.771Z,3.75
2023-01-04T03:06:16.612Z,3.60
2023-01-04T03:08:44.464Z,5.38
2023-01-04T03:11:31.107Z,7.57
2023-01-04T03:13:56.515Z,7.80
2023-01-04T03:16:26.633Z,3.88
2023-01-04T03:18:57.428Z,4.80
2023-01-04T03:21:24.954Z,4.32
2023-01-04T03:24:08.196Z,2.88
2023-01-04T03:26:52.640Z,3.15
2023-01-04T03:29:39.851Z,4.97
2023-01-04T03:32:27.226Z,4.63
2023-01-04T03:35:09.610Z,3.47
2023-01-04T03:37:39.158Z,3.35
2023-01-04T03:40:38.643Z,4.25
2023-01-04T03:43:24.596Z,1.45
2023-01-04T03:46:10.373Z,4.82
2023-01-04T03:48:40.368Z,2.03
2023-01-04T03:51:15.568Z,2.30
2023-01-04T03:53:48.043Z,1.52
2023-01-04T03:56:13.776Z,1.55
2023-01-04T03:58:38.618Z,3.03
2023-01-04T04:01:04.385Z,2.20
2023-01-04T04:03:28.065Z,1.90
2023-01-04T04:06:09.624Z,3.22
2023-01-04T04:08:34.343Z,2.85
2023-01-04T04:11:21.025Z,3.92
2023-01-04T04:13:44.608Z,1.77
2023-01-04T04:16:08.614Z,2.20
2023-01-04T04:18:31.963Z,1.30
2023-01-04T04:20:59.062Z,2.17
2023-01-04T04:23:22.387Z,2.17
2023-01-04T04:25:47.075Z,2.80
2023-01-04T04:28:10.389Z,1.42
2023-01-04T04:30:34.040Z,1.80
2023-01-04T04:32:57.817Z,2.72
2023-01-04T04:35:21.182Z,0.85
2023-01-04T04:37:44.453Z,2.00
2023-01-04T04:40:29.482Z,1.25
2023-01-04T04:42:53.189Z,3.50
2023-01-04T04:45:16.689Z,0.85
2023-01-04T04:47:39.982Z,2.95
2023-01-04T04:50:03.336Z,1.30
2023-01-04T04:52:26.830Z,1.67
2023-01-04T04:54:50.205Z,1.35
2023-01-04T04:57:13.460Z,1.05
2023-01-04T04:59:38.441Z,1.60
2023-01-04T05:02:01.907Z,0.73
2023-01-04T05:04:25.438Z,2.17
2023-01-04T05:06:50.862Z,1.55
2023-01-04T05:09:15.131Z,2.17
2023-01-04T05:11:56.005Z,1.15
2023-01-04T05:14:19.348Z,1.50
2023-01-04T05:16:45.195Z,1.23
2023-01-04T05:19:08.664Z,0.82
2023-01-04T05:21:31.979Z,2.28
2023-01-04T05:23:55.425Z,0.70
2023-01-04T05:26:18.779Z,0.82
2023-01-04T05:28:42.062Z,1.95
2023-01-04T05:31:04.511Z,1.25
2023-01-04T05:33:31.737Z,1.65
2023-01-04T05:35:57.043Z,0.88
2023-01-04T05:38:21.053Z,1.15
2023-01-04T05:40:45.011Z,1.27
2023-01-04T05:43:08.556Z,0.77
2023-01-04T05:45:32.111Z,0.60
2023-01-04T05:47:56.305Z,1.58
2023-01-04T05:50:23.272Z,1.17
2023-01-04T05:52:47.188Z,0.95
2023-01-04T05:55:11.103Z,0.93
2023-01-04T05:57:34.665Z,3.45
2023-01-04T05:59:57.938Z,0.90
2023-01-04T06:02:24.758Z,2.80
2023-01-04T06:04:54.689Z,0.68
2023-01-04T06:07:23.645Z,1.25
2023-01-04T06:09:47.133Z,0.95
2023-01-04T06:12:11.088Z,0.60
2023-01-04T06:14:34.557Z,1.27
2023-01-04T06:16:58.119Z,1.30
2023-01-04T06:19:21.506Z,1.45
2023-01-04T06:21:44.872Z,0.77
2023-01-04T06:24:11.818Z,1.05
2023-01-04T06:26:35.087Z,0.95
2023-01-04T06:28:58.484Z,0.70
2023-01-04T06:31:21.819Z,0.80
2023-01-04T06:33:45.211Z,1.40
2023-01-04T06:36:19.955Z,1.27
2023-01-04T06:38:43.653Z,3.03
2023-01-04T06:41:08.556Z,0.73
2023-01-04T06:43:31.967Z,2.65
2023-01-04T06:45:55.417Z,1.38
2023-01-04T06:48:19.042Z,2.85
2023-01-04T06:50:42.746Z,1.33
2023-01-04T06:53:06.109Z,0.50
2023-01-04T06:55:30.286Z,0.65
2023-01-04T06:57:59.294Z,1.05
2023-01-04T07:00:23.632Z,0.93
2023-01-04T07:03:13.295Z,0.77
2023-01-04T07:05:31.086Z,1.23
2023-01-04T07:07:54.404Z,1.00
2023-01-04T07:10:17.823Z,1.50
2023-01-04T07:12:41.222Z,1.58
2023-01-04T07:15:37.323Z,1.20
2023-01-04T07:17:51.689Z,1.17
2023-01-04T07:20:15.114Z,1.00
2023-01-04T07:22:38.481Z,1.23
2023-01-04T07:25:01.783Z,1.42
2023-01-04T07:27:25.115Z,1.88
2023-01-04T07:29:48.577Z,1.00
2023-01-04T07:32:14.243Z,1.90
2023-01-04T07:34:39.505Z,1.15
2023-01-04T07:37:02.874Z,0.85
2023-01-04T07:39:26.105Z,0.63
2023-01-04T07:41:50.999Z,1.98
2023-01-04T07:44:18.082Z,1.17
2023-01-04T07:46:42.491Z,1.27
2023-01-04T07:49:14.604Z,0.90
2023-01-04T07:51:40.549Z,0.90
2023-01-04T07:54:03.928Z,0.77
2023-01-04T07:56:27.316Z,0.75
2023-01-04T07:58:50.720Z,0.50
2023-01-04T08:01:16.958Z,2.00
2023-01-04T08:03:40.932Z,1.15
2023-01-04T08:06:06.789Z,1.17
2023-01-04T08:08:30.114Z,2.60
2023-01-04T08:10:53.331Z,1.38
2023-01-04T08:13:16.578Z,0.80
2023-01-04T08:15:40.040Z,1.35
2023-01-04T08:18:03.379Z,1.20
2023-01-04T08:20:26.675Z,4.70
2023-01-04T08:22:51.675Z,0.70
2023-01-04T08:25:15.248Z,1.02
2023-01-04T08:27:39.330Z,1.15
2023-01-04T08:30:02.806Z,1.25
2023-01-04T08:32:26.231Z,1.33
2023-01-04T08:34:49.616Z,1.52
2023-01-04T08:37:12.899Z,1.23
2023-01-04T08:39:37.813Z,1.17
2023-01-04T08:42:10.881Z,1.20
2023-01-04T08:44:42.606Z,1.05
2023-01-04T08:47:06.413Z,3.38
2023-01-04T08:49:29.929Z,2.97
2023-01-04T08:51:53.564Z,2.17
2023-01-04T08:54:17.629Z,1.25
2023-01-04T08:56:42.767Z,1.88
2023-01-04T08:59:06.934Z,0.88
2023-01-04T09:01:30.728Z,1.40
2023-01-04T09:03:55.719Z,3.17
2023-01-04T09:06:20.243Z,1.40
2023-01-04T09:08:45.331Z,1.60
2023-01-04T09:11:11.138Z,1.55
2023-01-04T09:13:37.206Z,1.63
2023-01-04T09:16:02.975Z,2.35
2023-01-04T09:18:33.619Z,4.10
2023-01-04T09:20:57.168Z,1.20
2023-01-04T09:23:20.531Z,2.60
2023-01-04T09:25:44.039Z,2.58
2023-01-04T09:28:07.415Z,1.63
2023-01-04T09:30:32.571Z,3.05
2023-01-04T09:32:55.954Z,6.57
2023-01-04T09:35:19.379Z,3.65
2023-01-04T09:37:42.783Z,1.30
2023-01-04T09:40:07.986Z,5.05
2023-01-04T09:42:37.842Z,2.40
2023-01-04T09:45:25.056Z,1.05
2023-01-04T09:47:54.837Z,1.05
2023-01-04T09:50:23.457Z,2.80
2023-01-04T09:53:04.209Z,2.17
2023-01-04T09:55:39.476Z,3.08
2023-01-04T09:58:08.272Z,2.85
2023-01-04T10:00:43.400Z,1.42
2023-01-04T10:03:16.364Z,1.35
2023-01-04T10:05:41.690Z,1.98
2023-01-04T10:08:05.903Z,3.70
2023-01-04T10:10:49.775Z,1.33
2023-01-04T10:13:28.216Z,3.53
2023-01-04T10:16:01.970Z,1.73
2023-01-04T10:21:39.321Z,2.22
2023-01-04T10:24:37.870Z,1.77
2023-01-04T10:27:09.068Z,3.25
2023-01-04T10:29:46.359Z,2.28
2023-01-04T10:32:20.667Z,3.47
2023-01-04T10:34:47.253Z,1.70
2023-01-04T10:37:17.731Z,1.88
2023-01-04T10:39:42.145Z,1.65
2023-01-04T10:42:18.359Z,2.10
2023-01-04T10:44:54.126Z,2.72
2023-01-04T10:47:24.777Z,5.40
2023-01-04T10:49:54.636Z,2.10
2023-01-04T10:52:23.145Z,3.47
2023-01-04T10:54:53.982Z,2.35
2023-01-04T10:57:25.145Z,4.03
2023-01-04T10:59:55.582Z,4.40
2023-01-04T11:02:27.687Z,4.50
2023-01-04T11:04:58.826Z,2.92
2023-01-04T11:07:26.753Z,4.95
2023-01-04T11:09:58.461Z,4.18
2023-01-04T11:12:24.525Z,3.17
2023-01-04T11:14:47.880Z,5.15
2023-01-04T11:17:13.021Z,4.20
2023-01-04T11:19:36.624Z,5.95
2023-01-04T11:22:09.109Z,1.95
2023-01-04T11:24:34.261Z,2.28
2023-01-04T11:26:59.683Z,6.68
2023-01-04T11:29:34.032Z,5.05
2023-01-04T11:32:02.404Z,2.65
2023-01-04T11:34:48.851Z,5.13
2023-01-04T11:37:37.289Z,2.35
2023-01-04T11:40:28.416Z,3.53
2023-01-04T11:42:54.579Z,2.90
2023-01-04T11:45:27.151Z,1.63
2023-01-04T11:47:53.652Z,3.67
2023-01-04T11:50:38.106Z,3.00
2023-01-04T11:53:03.202Z,3.17
2023-01-04T11:55:29.468Z,3.97
2023-01-04T11:58:08.021Z,1.95
2023-01-04T12:00:31.488Z,2.92
2023-01-04T12:03:14.647Z,3.45
2023-01-04T12:05:38.646Z,2.70
2023-01-04T12:08:03.345Z,2.00
2023-01-04T12:10:29.017Z,2.47
2023-01-04T12:12:52.290Z,1.00
2023-01-04T12:15:26.382Z,1.77
2023-01-04T12:17:54.301Z,2.72
2023-01-04T12:20:28.787Z,2.45
2023-01-04T12:22:52.154Z,1.92
2023-01-04T12:25:35.061Z,1.02
2023-01-04T12:27:59.145Z,0.80
2023-01-04T12:30:42.015Z,2.97
2023-01-04T12:33:39.859Z,1.15
2023-01-04T12:36:06.658Z,0.95
2023-01-04T12:39:30.007Z,2.92
2023-01-04T12:42:27.113Z,0.80
2023-01-04T12:45:24.063Z,1.77
2023-01-04T12:48:14.292Z,0.70
2023-01-04T12:51:37.396Z,1.10
2023-01-04T12:54:05.749Z,2.72
2023-01-04T12:57:22.211Z,1.77
2023-01-04T12:59:58.342Z,1.85
2023-01-04T13:02:24.812Z,2.38
2023-01-04T13:04:49.572Z,1.60
2023-01-04T13:07:20.816Z,0.80
2023-01-04T13:09:59.915Z,1.20
2023-01-04T13:13:10.360Z,0.73
2023-01-04T13:15:49.442Z,1.42
2023-01-04T13:18:36.117Z,1.23
2023-01-04T13:20:59.783Z,1.85
2023-01-04T13:23:24.103Z,0.65
2023-01-04T13:25:47.485Z,0.82
2023-01-04T13:28:19.472Z,1.73
2023-01-04T13:30:44.443Z,0.70
2023-01-04T13:33:27.997Z,0.60
2023-01-04T13:36:03.444Z,3.00
2023-01-04T13:38:26.790Z,1.00
2023-01-04T13:40:50.270Z,2.65
2023-01-04T13:43:36.660Z,1.38
2023-01-04T13:46:18.331Z,1.20
2023-01-04T13:48:47.754Z,3.45
2023-01-04T13:51:17.853Z,1.45
2023-01-04T13:53:41.980Z,0.82
2023-01-04T13:56:05.821Z,0.90
2023-01-04T13:58:31.541Z,2.28
2023-01-04T14:01:01.156Z,1.85
2023-01-04T14:03:35.420Z,1.17
2023-01-04T14:06:17.209Z,1.52
2023-01-04T14:08:45.799Z,0.80
2023-01-04T14:11:39.968Z,2.28
2023-01-04T14:14:04.121Z,0.90
2023-01-04T14:16:27.580Z,1.10
2023-01-04T14:18:52.399Z,0.80
2023-01-04T14:21:19.856Z,2.83
2023-01-04T14:23:43.177Z,1.23
2023-01-04T14:26:06.623Z,0.73
2023-01-04T14:28:46.894Z,0.60
2023-01-04T14:31:22.709Z,0.98
2023-01-04T14:33:48.082Z,1.38
2023-01-04T14:36:19.681Z,0.80
2023-01-04T14:38:46.313Z,1.23
2023-01-04T14:41:20.577Z,1.00
2023-01-04T14:43:53.407Z,2.25
2023-01-04T14:46:17.615Z,2.00
2023-01-04T14:48:41.004Z,0.75
2023-01-04T14:51:07.069Z,2.78
2023-01-04T14:53:32.153Z,2.60
2023-01-04T14:55:55.625Z,1.33
2023-01-04T14:58:18.889Z,2.28
2023-01-04T15:00:42.169Z,1.10
2023-01-04T15:03:05.785Z,2.50
2023-01-04T15:05:34.145Z,0.88
2023-01-04T15:07:59.054Z,2.13
2023-01-04T15:10:27.155Z,1.65
2023-01-04T15:12:50.607Z,1.48
2023-01-04T15:15:14.035Z,1.25
2023-01-04T15:17:37.685Z,1.67
2023-01-04T15:20:00.971Z,1.10
2023-01-04T15:22:24.291Z,4.65
2023-01-04T15:24:47.608Z,1.63
2023-01-04T15:27:12.605Z,2.05
2023-01-04T15:29:36.013Z,2.92
2023-01-04T15:31:59.366Z,1.50
2023-01-04T15:34:23.647Z,3.60
2023-01-04T15:36:47.043Z,2.58
2023-01-04T15:39:14.049Z,4.72
2023-01-04T15:41:54.901Z,3.45
2023-01-04T15:44:19.577Z,2.58
2023-01-04T15:46:42.982Z,5.80
2023-01-04T15:49:08.286Z,3.88
2023-01-04T15:51:34.071Z,6.50
2023-01-04T15:53:57.370Z,4.32
2023-01-04T15:56:21.933Z,6.13
2023-01-04T15:58:45.287Z,3.63
2023-01-04T16:01:12.166Z,9.95
2023-01-04T16:03:36.328Z,4.38
2023-01-04T16:06:04.534Z,5.07
2023-01-04T16:08:27.872Z,5.75
2023-01-04T16:10:51.218Z,5.25
2023-01-04T16:13:14.675Z,5.90
2023-01-04T16:15:39.200Z,8.88
2023-01-04T16:18:03.857Z,6.32
2023-01-04T16:20:27.105Z,5.22
2023-01-04T16:22:50.616Z,8.77
2023-01-04T16:25:14.328Z,4.00
2023-01-04T16:27:39.289Z,5.35
2023-01-04T16:30:03.231Z,5.72
2023-01-04T16:32:26.597Z,3.83
2023-01-04T16:34:52.230Z,6.85
2023-01-04T16:37:15.582Z,5.53
2023-01-04T16:40:09.315Z,7.50
2023-01-04T16:42:22.655Z,4.78
2023-01-04T16:44:46.555Z,5.05
2023-01-04T16:47:10.044Z,6.65
2023-01-04T16:49:33.461Z,4.05
2023-01-04T16:51:58.171Z,5.20
2023-01-04T16:54:21.424Z,5.57
2023-01-04T16:56:49.090Z,5.63
2023-01-04T16:59:15.740Z,5.57
2023-01-04T17:01:48.729Z,4.47
2023-01-04T17:04:14.844Z,5.30
2023-01-04T17:06:40.258Z,5.03
2023-01-04T17:09:07.775Z,5.97
2023-01-04T17:14:17.379Z,4.90
2023-01-04T17:16:40.871Z,4.40
2023-01-04T17:19:04.500Z,7.30
2023-01-04T17:21:34.704Z,4.88
2023-01-04T17:24:00.133Z,6.00
2023-01-04T17:26:28.072Z,4.50
2023-01-04T17:28:52.518Z,5.93
2023-01-04T17:31:19.853Z,12.52
2023-01-04T17:33:43.419Z,8.32
2023-01-04T17:36:09.114Z,10.02
2023-01-04T17:38:32.718Z,10.35
2023-01-04T17:40:55.984Z,8.75
2023-01-04T17:43:20.583Z,12.07
2023-01-04T17:45:45.592Z,13.00
2023-01-04T17:48:08.937Z,12.38
2023-01-04T17:50:32.619Z,12.18
2023-01-04T17:52:59.507Z,10.60
2023-01-04T17:55:22.802Z,12.13
2023-01-04T17:57:46.475Z,13.55
2023-01-04T18:00:14.802Z,13.57
2023-01-04T18:02:38.436Z,10.60
2023-01-04T18:05:01.735Z,13.90
2023-01-04T18:07:25.794Z,13.88
2023-01-04T18:09:49.224Z,14.80
2023-01-04T18:12:12.495Z,19.02
2023-01-04T18:14:35.927Z,15.52
2023-01-04T18:17:00.637Z,22.35
2023-01-04T18:19:24.314Z,18.30
2023-01-04T18:21:47.777Z,23.27
2023-01-04T18:24:40.152Z,23.08
2023-01-04T18:29:38.345Z,22.05
2023-01-04T18:32:03.385Z,23.60
2023-01-04T18:34:27.255Z,20.58
2023-01-04T18:36:50.667Z,19.98
2023-01-04T18:39:15.070Z,28.52
2023-01-04T18:41:38.936Z,21.75
2023-01-04T18:46:45.787Z,20.80
2023-01-04T18:49:13.070Z,27.42
2023-01-04T18:51:37.427Z,28.17
2023-01-04T18:54:00.889Z,27.85
2023-01-04T18:56:24.550Z,28.52
2023-01-04T18:58:49.944Z,26.92
2023-01-04T19:01:16.435Z,25.92
2023-01-04T19:03:42.296Z,26.17
2023-01-04T19:06:10.253Z,23.83
2023-01-04T19:08:33.714Z,25.63
2023-01-04T19:10:56.972Z,27.70
2023-01-04T19:13:20.276Z,23.92
2023-01-04T19:15:47.681Z,26.42
2023-01-04T19:18:11.403Z,27.02
2023-01-04T19:20:34.860Z,28.95
2023-01-04T19:22:59.949Z,25.45
2023-01-04T19:25:28.022Z,28.20
2023-01-04T19:27:51.981Z,27.50
2023-01-04T19:30:16.950Z,23.20
2023-01-04T19:32:40.504Z,27.85
2023-01-04T19:35:04.076Z,24.52
2023-01-04T19:37:27.412Z,23.67
2023-01-04T19:39:52.124Z,30.35
2023-01-04T19:42:15.442Z,21.77
2023-01-04T19:44:39.073Z,30.08
2023-01-04T19:47:02.619Z,34.92
2023-01-04T19:49:25.902Z,27.27
2023-01-04T19:51:51.806Z,26.90
2023-01-04T19:54:19.904Z,29.85
2023-01-04T19:56:49.586Z,25.35
2023-01-04T19:59:12.908Z,28.30
2023-01-04T20:01:36.830Z,27.98
2023-01-04T20:04:00.242Z,28.58
2023-01-04T20:06:24.145Z,28.70
2023-01-04T20:08:48.035Z,33.45
2023-01-04T20:11:14.025Z,26.98
2023-01-04T20:13:39.216Z,28.88
2023-01-04T20:16:04.759Z,24.00
2023-01-04T20:18:28.537Z,30.27
2023-01-04T20:20:53.165Z,32.63
2023-01-04T20:23:17.316Z,34.58
2023-01-04T20:25:41.510Z,28.50
2023-01-04T20:28:04.961Z,31.23
2023-01-04T20:30:29.767Z,32.30
2023-01-04T20:32:53.209Z,29.30
2023-01-04T20:35:16.758Z,26.80
2023-01-04T20:37:40.099Z,30.52
2023-01-04T20:40:03.421Z,26.48
2023-01-04T20:42:44.175Z,27.35
2023-01-04T20:45:09.336Z,28.60
2023-01-04T20:47:34.338Z,27.50
2023-01-04T20:49:57.784Z,35.08
2023-01-04T20:52:21.291Z,28.33
2023-01-04T20:54:44.895Z,26.60
2023-01-04T20:57:08.340Z,28.63
2023-01-04T20:59:31.920Z,30.75
2023-01-04T21:01:55.560Z,31.63
2023-01-04T21:04:20.716Z,29.88
2023-01-04T21:06:44.403Z,28.65
2023-01-04T21:09:08.170Z,30.25
2023-01-04T21:11:31.544Z,20.58
2023-01-04T21:13:54.928Z,26.20
2023-01-04T21:16:18.757Z,29.67
2023-01-04T21:18:43.245Z,32.45
2023-01-04T21:21:10.517Z,22.10
2023-01-04T21:23:33.968Z,20.38
2023-01-04T21:25:57.522Z,28.58
2023-01-04T21:28:23.198Z,28.75
2023-01-04T21:30:47.708Z,28.35
2023-01-04T21:33:13.437Z,26.92
2023-01-04T21:35:37.350Z,31.45
2023-01-04T21:38:02.080Z,35.08
2023-01-04T21:40:25.606Z,31.10
2023-01-04T21:42:48.828Z,27.70
2023-01-04T21:45:13.148Z,39.97
2023-01-04T21:47:37.789Z,29.45
2023-01-04T21:50:01.317Z,32.67
2023-01-04T21:52:24.876Z,36.15
2023-01-04T21:54:49.829Z,32.70
2023-01-04T21:57:13.129Z,23.83
2023-01-04T21:59:37.431Z,29.55
2023-01-04T22:02:00.911Z,24.35
2023-01-04T22:04:24.914Z,26.67
2023-01-04T22:06:48.345Z,29.25
2023-01-04T22:09:11.805Z,35.20
2023-01-04T22:11:36.938Z,27.77
2023-01-04T22:14:00.473Z,30.25
2023-01-04T22:16:25.222Z,27.30
2023-01-04T22:18:49.469Z,28.65
2023-01-04T22:21:15.195Z,32.15
2023-01-04T22:23:39.260Z,27.88
2023-01-04T22:26:02.642Z,27.30
2023-01-04T22:28:31.787Z,25.65
2023-01-04T22:31:05.136Z,28.70
2023-01-04T22:33:28.616Z,31.83
2023-01-04T22:35:51.993Z,34.67
2023-01-04T22:38:15.580Z,26.15
2023-01-04T22:40:40.688Z,32.38
2023-01-04T22:43:04.035Z,31.63
2023-01-04T22:45:28.946Z,31.20
2023-01-04T22:47:52.454Z,33.72
2023-01-04T22:50:15.797Z,28.83
2023-01-04T22:52:39.213Z,29.58
2023-01-04T22:55:02.489Z,25.50
2023-01-04T22:57:25.973Z,26.15
2023-01-04T22:59:49.309Z,27.08
2023-01-04T23:02:14.678Z,26.77
2023-01-04T23:04:38.140Z,29.15
2023-01-04T23:07:01.645Z,30.50
2023-01-04T23:09:25.887Z,29.92
2023-01-04T23:11:49.307Z,32.03
2023-01-04T23:14:17.888Z,24.70
2023-01-04T23:16:41.439Z,26.98
2023-01-04T23:19:07.577Z,28.30
2023-01-04T23:21:31.897Z,30.80
2023-01-04T23:23:55.217Z,27.63
2023-01-04T23:26:22.187Z,31.23
2023-01-04T23:28:47.248Z,28.50
2023-01-04T23:31:13.979Z,27.95
2023-01-04T23:33:37.362Z,28.50
2023-01-04T23:36:10.281Z,32.20
2023-01-04T23:38:33.827Z,24.42
2023-01-04T23:40:57.207Z,30.55
2023-01-04T23:43:20.479Z,27.73
2023-01-04T23:45:43.708Z,32.63
2023-01-04T23:48:07.738Z,22.05
2023-01-04T23:50:31.014Z,25.48
2023-01-04T23:52:55.723Z,25.92
2023-01-04T23:55:19.095Z,29.30
2023-01-04T23:57:42.296Z,21.35
